createdAt,value
2024-03-05T00:01:38.612Z,100366.19
2024-03-05T00:04:06.526Z,100367.91
2024-03-05T00:06:34.248Z,100376.66
2024-03-05T00:09:01.253Z,100360.91
2024-03-05T00:11:28.308Z,100351.28
2024-03-05T00:13:55.412Z,100350.41
2024-03-05T00:16:22.499Z,100347.78
2024-03-05T00:18:49.619Z,100343.41
2024-03-05T00:21:16.752Z,100339.03
2024-03-05T00:23:43.764Z,100341.66
2024-03-05T00:26:16.087Z,100336.47
2024-03-05T00:28:43.685Z,100327.72
2024-03-05T00:31:10.970Z,100329.47
2024-03-05T00:33:38.040Z,100331.22
2024-03-05T00:36:06.361Z,100336.47
2024-03-05T00:38:35.381Z,100322.50
2024-03-05T00:41:03.041Z,100324.22
2024-03-05T00:43:30.124Z,100319.00
2024-03-05T00:45:57.340Z,100319.84
2024-03-05T00:48:24.856Z,100313.72
2024-03-05T00:50:52.260Z,100312.00
2024-03-05T00:53:19.630Z,100307.66
2024-03-05T00:55:46.702Z,100309.38
2024-03-05T00:58:14.517Z,100311.16
2024-03-05T01:00:41.763Z,100310.25
2024-03-05T01:03:09.145Z,100310.25
2024-03-05T01:05:37.610Z,100302.38
2024-03-05T01:08:04.973Z,100304.09
2024-03-05T01:10:32.181Z,100294.50
2024-03-05T01:12:59.359Z,100298.03
2024-03-05T01:15:26.718Z,100301.50
2024-03-05T01:17:53.846Z,100299.72
2024-03-05T01:20:21.655Z,100295.38
2024-03-05T01:22:48.890Z,100291.00
2024-03-05T01:25:18.335Z,100294.53
2024-03-05T01:27:45.672Z,100289.28
2024-03-05T01:30:13.072Z,100296.25
2024-03-05T01:32:40.278Z,100298.00
2024-03-05T01:35:11.731Z,100290.97
2024-03-05T01:37:39.360Z,100290.13
2024-03-05T01:40:07.183Z,100285.78
2024-03-05T01:42:34.279Z,100277.91
2024-03-05T01:45:01.473Z,100282.22
2024-03-05T01:47:28.996Z,100283.97
2024-03-05T01:49:56.670Z,100279.59
2024-03-05T01:52:24.556Z,100280.50
2024-03-05T01:54:56.783Z,100277.00
2024-03-05T01:57:25.874Z,100265.59
2024-03-05T01:59:52.950Z,100270.00
2024-03-05T02:02:20.164Z,100261.31
2024-03-05T02:04:48.793Z,100267.38
2024-03-05T02:07:18.971Z,100264.72
2024-03-05T02:09:46.190Z,100265.63
2024-03-05T02:12:13.212Z,100271.75
2024-03-05T02:14:40.778Z,100267.38
2024-03-05T02:17:09.480Z,100256.06
2024-03-05T02:19:37.517Z,100254.31
2024-03-05T02:22:04.979Z,100257.78
2024-03-05T02:24:32.173Z,100248.16
2024-03-05T02:27:05.977Z,100248.16
2024-03-05T02:29:35.688Z,100253.41
2024-03-05T02:32:02.964Z,100254.28
2024-03-05T02:34:30.016Z,100247.34
2024-03-05T02:36:59.052Z,100247.31
2024-03-05T02:39:28.475Z,100239.44
2024-03-05T02:41:59.531Z,100240.31
2024-03-05T02:44:28.068Z,100242.06
2024-03-05T02:46:55.365Z,100237.69
2024-03-05T02:49:22.444Z,100245.56
2024-03-05T02:51:49.535Z,100250.72
2024-03-05T02:54:16.663Z,100247.25
2024-03-05T02:56:43.688Z,100242.88
2024-03-05T02:59:10.705Z,100247.28
2024-03-05T03:01:38.100Z,100246.34
2024-03-05T03:04:06.804Z,100235.81
2024-03-05T03:06:34.062Z,100235.66
2024-03-05T03:09:01.156Z,100224.41
2024-03-05T03:11:29.037Z,100233.22
2024-03-05T03:13:56.837Z,100221.59
2024-03-05T03:16:24.312Z,100226.84
2024-03-05T03:18:52.200Z,100232.31
2024-03-05T03:21:19.464Z,100227.88
2024-03-05T03:23:46.568Z,100227.56
2024-03-05T03:26:14.138Z,100230.41
2024-03-05T03:28:41.213Z,100234.66
2024-03-05T03:31:12.309Z,100238.38
2024-03-05T03:33:40.613Z,100241.78
2024-03-05T03:36:08.746Z,100237.44
2024-03-05T03:38:36.499Z,100243.47
2024-03-05T03:41:06.733Z,100243.56
2024-03-05T03:43:33.932Z,100239.28
2024-03-05T03:46:00.978Z,100247.19
2024-03-05T03:48:27.961Z,100242.88
2024-03-05T03:50:54.952Z,100243.75
2024-03-05T03:53:22.268Z,100241.03
2024-03-05T03:55:50.063Z,100241.84
2024-03-05T03:58:17.362Z,100248.06
2024-03-05T04:00:46.230Z,100246.34
2024-03-05T04:03:13.376Z,100244.38
2024-03-05T04:05:40.439Z,100247.06
2024-03-05T04:08:07.744Z,100247.13
2024-03-05T04:10:34.882Z,100247.22
2024-03-05T04:13:01.958Z,100241.97
2024-03-05T04:15:29.186Z,100241.09
2024-03-05T04:17:56.746Z,100241.00
2024-03-05T04:20:23.803Z,100233.06
2024-03-05T04:22:50.908Z,100228.66
2024-03-05T04:25:19.384Z,100228.00
2024-03-05T04:27:49.169Z,100226.97
2024-03-05T04:30:16.463Z,100225.84
2024-03-05T04:32:58.015Z,100230.44
2024-03-05T04:35:27.894Z,100222.56
2024-03-05T04:37:55.122Z,100231.41
2024-03-05T04:40:22.812Z,100235.78
2024-03-05T04:42:50.462Z,100229.56
2024-03-05T04:45:18.910Z,100234.06
2024-03-05T04:47:46.156Z,100227.81
2024-03-05T04:50:16.051Z,100233.09
2024-03-05T04:52:44.150Z,100229.59
2024-03-05T04:55:11.608Z,100234.69
2024-03-05T04:57:38.651Z,100227.75
2024-03-05T05:00:21.145Z,100235.56
2024-03-05T05:02:49.221Z,100232.25
2024-03-05T05:05:19.888Z,100237.38
2024-03-05T05:07:47.877Z,100241.66
2024-03-05T05:10:15.257Z,100236.34
2024-03-05T05:12:44.936Z,100240.53
2024-03-05T05:15:13.734Z,100232.50
2024-03-05T05:17:41.600Z,100236.34
2024-03-05T05:20:09.935Z,100238.13
2024-03-05T05:22:43.149Z,100241.34
2024-03-05T05:25:10.283Z,100240.44
2024-03-05T05:27:37.755Z,100241.16
2024-03-05T05:30:09.470Z,100233.25
2024-03-05T05:32:41.280Z,100236.50
2024-03-05T05:35:09.580Z,100235.41
2024-03-05T05:37:38.273Z,100239.88
2024-03-05T05:40:07.196Z,100243.31
2024-03-05T05:42:34.319Z,100238.00
2024-03-05T05:45:01.700Z,100246.97
2024-03-05T05:47:29.052Z,100241.41
2024-03-05T05:49:56.300Z,100246.75
2024-03-05T05:52:23.974Z,100243.78
2024-03-05T05:54:51.351Z,100249.38
2024-03-05T05:57:19.345Z,100260.69
2024-03-05T05:59:46.549Z,100243.69
2024-03-05T06:02:14.595Z,100255.03
2024-03-05T06:04:42.959Z,100254.03
2024-03-05T06:07:12.811Z,100252.22
2024-03-05T06:09:42.768Z,100264.19
2024-03-05T06:12:10.442Z,100258.13
2024-03-05T06:14:37.468Z,100260.22
2024-03-05T06:17:04.867Z,100255.97
2024-03-05T06:19:32.030Z,100251.66
2024-03-05T06:21:59.109Z,100258.75
2024-03-05T06:24:26.642Z,100256.50
2024-03-05T06:26:53.679Z,100252.72
2024-03-05T06:29:20.708Z,100251.09
2024-03-05T06:31:49.164Z,100251.50
2024-03-05T06:34:16.612Z,100258.44
2024-03-05T06:36:47.891Z,100261.03
2024-03-05T06:39:30.761Z,100254.31
2024-03-05T06:41:59.927Z,100254.72
2024-03-05T06:44:37.020Z,100252.50
2024-03-05T06:47:06.178Z,100260.38
2024-03-05T06:49:39.951Z,100260.72
2024-03-05T06:52:28.194Z,100258.03
2024-03-05T06:55:18.538Z,100251.06
2024-03-05T06:57:48.180Z,100258.84
2024-03-05T07:00:18.804Z,100249.19
2024-03-05T07:02:46.032Z,100245.28
2024-03-05T07:05:13.773Z,100249.50
2024-03-05T07:07:41.131Z,100257.22
2024-03-05T07:10:15.366Z,100262.66
2024-03-05T07:12:46.313Z,100251.09
2024-03-05T07:15:16.260Z,100247.22
2024-03-05T07:17:46.160Z,100248.13
2024-03-05T07:20:20.014Z,100243.69
2024-03-05T07:22:48.328Z,100248.97
2024-03-05T07:25:18.420Z,100243.97
2024-03-05T07:27:46.789Z,100258.25
2024-03-05T07:30:17.209Z,100245.78
2024-03-05T07:32:48.681Z,100255.09
2024-03-05T07:35:17.389Z,100252.31
2024-03-05T07:37:48.181Z,100242.50
2024-03-05T07:40:21.856Z,100245.41
2024-03-05T07:42:57.304Z,100240.88
2024-03-05T07:45:24.670Z,100250.38
2024-03-05T07:47:51.959Z,100254.50
2024-03-05T07:50:19.304Z,100249.25
2024-03-05T07:52:48.204Z,100253.50
2024-03-05T07:55:25.778Z,100259.19
2024-03-05T07:57:57.982Z,100248.66
2024-03-05T08:00:26.174Z,100251.22
2024-03-05T08:02:56.770Z,100254.09
2024-03-05T08:05:24.604Z,100252.00
2024-03-05T08:07:57.713Z,100247.72
2024-03-05T08:10:25.597Z,100243.63
2024-03-05T08:12:57.101Z,100250.59
2024-03-05T08:15:28.128Z,100242.44
2024-03-05T08:17:57.745Z,100236.81
2024-03-05T08:20:27.293Z,100227.91
2024-03-05T08:22:55.758Z,100229.72
2024-03-05T08:25:24.338Z,100212.69
2024-03-05T08:28:00.131Z,100226.34
2024-03-05T08:30:32.887Z,100226.59
2024-03-05T08:33:04.572Z,100226.44
2024-03-05T08:35:32.598Z,100226.72
2024-03-05T08:38:01.577Z,100235.78
2024-03-05T08:40:34.160Z,100232.16
2024-03-05T08:43:05.160Z,100218.22
2024-03-05T08:45:33.229Z,100214.59
2024-03-05T08:48:00.570Z,100222.78
2024-03-05T08:50:30.693Z,100220.97
2024-03-05T08:52:59.871Z,100216.22
2024-03-05T08:55:28.237Z,100214.44
2024-03-05T08:57:56.346Z,100224.69
2024-03-05T09:00:33.445Z,100227.53
2024-03-05T09:03:13.562Z,100243.44
2024-03-05T09:05:44.366Z,100236.31
2024-03-05T09:08:14.900Z,100230.34
2024-03-05T09:10:42.233Z,100244.34
2024-03-05T09:13:09.555Z,100239.84
2024-03-05T09:15:41.478Z,100233.31
2024-03-05T09:18:14.238Z,100246.47
2024-03-05T09:20:43.709Z,100249.56
2024-03-05T09:23:11.349Z,100239.03
2024-03-05T09:25:42.185Z,100250.38
2024-03-05T09:28:09.342Z,100247.81
2024-03-05T09:30:36.350Z,100258.03
2024-03-05T09:33:04.160Z,100238.13
2024-03-05T09:35:31.689Z,100234.44
2024-03-05T09:37:58.991Z,100253.88
2024-03-05T09:40:26.607Z,100253.53
2024-03-05T09:42:59.545Z,100265.31
2024-03-05T09:45:31.869Z,100254.63
2024-03-05T09:48:00.071Z,100253.03
2024-03-05T09:50:27.363Z,100248.41
2024-03-05T09:52:55.135Z,100236.06
2024-03-05T09:55:22.477Z,100251.44
2024-03-05T09:57:50.538Z,100238.75
2024-03-05T10:00:21.963Z,100228.69
2024-03-05T10:02:52.206Z,100228.59
2024-03-05T10:05:20.590Z,100232.38
2024-03-05T10:07:50.228Z,100217.63
2024-03-05T10:10:22.203Z,100236.63
2024-03-05T10:12:51.618Z,100220.69
2024-03-05T10:15:22.518Z,100225.72
2024-03-05T10:17:54.115Z,100221.91
2024-03-05T10:20:38.549Z,100222.81
2024-03-05T10:23:11.111Z,100212.88
2024-03-05T10:25:38.469Z,100217.81
2024-03-05T10:28:07.624Z,100213.59
2024-03-05T10:30:37.757Z,100207.69
2024-03-05T10:33:09.180Z,100197.34
2024-03-05T10:35:40.021Z,100187.28
2024-03-05T10:38:14.055Z,100190.28
2024-03-05T10:40:46.297Z,100183.38
2024-03-05T10:43:19.872Z,100179.63
2024-03-05T10:45:48.722Z,100171.78
2024-03-05T10:48:19.572Z,100176.44
2024-03-05T10:50:50.345Z,100168.59
2024-03-05T10:53:18.362Z,100167.91
2024-03-05T10:55:46.339Z,100160.34
2024-03-05T10:58:15.103Z,100165.53
2024-03-05T11:00:45.243Z,100158.97
2024-03-05T11:03:14.401Z,100150.19
2024-03-05T11:05:51.797Z,100158.25
2024-03-05T11:08:21.075Z,100156.16
2024-03-05T11:10:56.586Z,100174.75
2024-03-05T11:13:24.547Z,100154.00
2024-03-05T11:15:53.951Z,100156.34
2024-03-05T11:18:33.176Z,100156.28
2024-03-05T11:21:13.322Z,100159.34
2024-03-05T11:23:44.508Z,100160.56
2024-03-05T11:26:23.476Z,100151.78
2024-03-05T11:28:54.736Z,100146.38
2024-03-05T11:31:22.586Z,100137.31
2024-03-05T11:34:18.942Z,100149.09
2024-03-05T11:36:46.646Z,100154.13
2024-03-05T11:39:20.619Z,100156.00
2024-03-05T11:41:49.263Z,100154.22
2024-03-05T11:44:59.830Z,100150.66
2024-03-05T11:47:27.196Z,100147.75
2024-03-05T11:49:54.536Z,100142.69
2024-03-05T11:52:22.496Z,100143.50
2024-03-05T11:55:06.737Z,100146.22
2024-03-05T11:57:34.730Z,100160.38
2024-03-05T12:00:01.931Z,100143.47
2024-03-05T12:02:29.249Z,100139.41
2024-03-05T12:05:04.723Z,100145.53
2024-03-05T12:07:31.895Z,100135.88
2024-03-05T12:09:59.058Z,100143.50
2024-03-05T12:12:26.267Z,100146.72
2024-03-05T12:14:55.192Z,100130.38
2024-03-05T12:17:24.496Z,100119.72
2024-03-05T12:20:11.374Z,100131.72
2024-03-05T12:22:41.598Z,100146.38
2024-03-05T12:25:09.962Z,100133.72
2024-03-05T12:27:39.643Z,100134.97
2024-03-05T12:30:08.429Z,100139.09
2024-03-05T12:32:38.074Z,100132.44
2024-03-05T12:35:06.702Z,100140.25
2024-03-05T12:37:35.486Z,100139.53
2024-03-05T12:40:08.925Z,100151.47
2024-03-05T12:42:36.177Z,100142.44
2024-03-05T12:45:09.511Z,100145.75
2024-03-05T12:47:38.185Z,100156.31
2024-03-05T12:50:08.550Z,100151.16
2024-03-05T12:52:36.516Z,100150.63
2024-03-05T12:55:11.424Z,100143.97
2024-03-05T12:57:38.985Z,100147.31
2024-03-05T13:00:12.352Z,100142.72
2024-03-05T13:02:43.691Z,100142.50
2024-03-05T13:05:11.554Z,100143.38
2024-03-05T13:07:39.649Z,100153.88
2024-03-05T13:10:13.122Z,100132.59
2024-03-05T13:12:40.598Z,100143.44
2024-03-05T13:15:08.360Z,100140.34
2024-03-05T13:17:35.725Z,100149.94
2024-03-05T13:20:03.910Z,100150.66
2024-03-05T13:22:31.456Z,100147.22
2024-03-05T13:24:58.576Z,100158.28
2024-03-05T13:27:25.847Z,100151.47
2024-03-05T13:30:01.503Z,100156.53
2024-03-05T13:32:38.519Z,100153.09
2024-03-05T13:35:08.354Z,100160.47
2024-03-05T13:37:39.611Z,100164.09
2024-03-05T13:40:14.321Z,100158.00
2024-03-05T13:42:41.453Z,100167.47
2024-03-05T13:45:13.388Z,100172.69
2024-03-05T13:47:41.156Z,100167.53
2024-03-05T13:50:12.966Z,100169.59
2024-03-05T13:52:49.696Z,100165.13
2024-03-05T13:55:17.550Z,100177.78
2024-03-05T13:57:44.617Z,100176.78
2024-03-05T14:00:20.851Z,100172.47
2024-03-05T14:02:48.951Z,100178.28
2024-03-05T14:05:16.685Z,100180.25
2024-03-05T14:07:45.780Z,100165.09
2024-03-05T14:10:13.105Z,100181.28
2024-03-05T14:12:41.624Z,100195.63
2024-03-05T14:15:22.135Z,100185.06
2024-03-05T14:17:53.456Z,100187.00
2024-03-05T14:20:26.092Z,100191.13
2024-03-05T14:22:55.621Z,100171.44
2024-03-05T14:25:22.901Z,100183.78
2024-03-05T14:27:50.024Z,100185.19
2024-03-05T14:30:20.616Z,100186.72
2024-03-05T14:32:48.249Z,100174.97
2024-03-05T14:35:15.658Z,100182.09
2024-03-05T14:37:44.270Z,100190.63
2024-03-05T14:40:12.342Z,100173.97
2024-03-05T14:42:39.517Z,100185.59
2024-03-05T14:45:07.448Z,100200.91
2024-03-05T14:47:34.718Z,100194.91
2024-03-05T14:50:01.900Z,100210.09
2024-03-05T14:52:29.032Z,100200.84
2024-03-05T14:54:58.252Z,100210.94
2024-03-05T14:57:25.421Z,100212.59
2024-03-05T14:59:52.488Z,100213.78
2024-03-05T15:02:19.639Z,100219.38
2024-03-05T15:04:46.810Z,100217.88
2024-03-05T15:07:13.975Z,100224.78
2024-03-05T15:09:41.446Z,100228.06
2024-03-05T15:12:11.021Z,100239.97
2024-03-05T15:14:43.456Z,100235.91
2024-03-05T15:17:12.049Z,100238.72
2024-03-05T15:19:39.169Z,100245.03
2024-03-05T15:22:07.521Z,100250.13
2024-03-05T15:24:34.644Z,100257.22
2024-03-05T15:27:05.748Z,100258.09
2024-03-05T15:29:33.977Z,100256.78
2024-03-05T15:32:02.839Z,100266.44
2024-03-05T15:34:30.301Z,100271.00
2024-03-05T15:37:00.235Z,100268.97
2024-03-05T15:39:27.296Z,100270.00
2024-03-05T15:41:54.942Z,100277.94
2024-03-05T15:44:21.978Z,100283.22
2024-03-05T15:46:49.903Z,100289.53
2024-03-05T15:49:17.030Z,100276.97
2024-03-05T15:51:44.103Z,100281.22
2024-03-05T15:54:11.795Z,100290.06
2024-03-05T15:56:58.762Z,100286.34
2024-03-05T15:59:44.470Z,100295.88
2024-03-05T16:02:11.711Z,100305.66
2024-03-05T16:04:57.507Z,100310.69
2024-03-05T16:07:26.351Z,100315.16
2024-03-05T16:09:53.498Z,100315.94
2024-03-05T16:12:20.663Z,100325.78
2024-03-05T16:14:47.776Z,100321.44
2024-03-05T16:17:14.829Z,100329.41
2024-03-05T16:19:42.607Z,100328.09
2024-03-05T16:22:10.279Z,100338.09
2024-03-05T16:24:37.496Z,100354.09
2024-03-05T16:27:04.735Z,100340.00
2024-03-05T16:29:31.910Z,100347.88
2024-03-05T16:31:59.880Z,100343.66
2024-03-05T16:34:27.109Z,100352.69
2024-03-05T16:36:54.905Z,100351.47
2024-03-05T16:39:22.217Z,100357.13
2024-03-05T16:41:49.470Z,100361.81
2024-03-05T16:44:17.075Z,100354.56
2024-03-05T16:46:46.664Z,100359.22
2024-03-05T16:49:14.063Z,100363.56
2024-03-05T16:51:43.144Z,100364.84
2024-03-05T16:54:11.661Z,100365.69
2024-03-05T16:56:38.682Z,100372.13
2024-03-05T16:59:08.695Z,100363.22
2024-03-05T17:01:36.033Z,100361.59
2024-03-05T17:04:06.999Z,100361.03
2024-03-05T17:06:34.765Z,100365.69
2024-03-05T17:09:02.821Z,100361.03
2024-03-05T17:11:30.548Z,100368.88
2024-03-05T17:13:57.734Z,100375.31
2024-03-05T17:16:26.766Z,100377.97
2024-03-05T17:18:53.970Z,100382.41
2024-03-05T17:21:20.996Z,100380.59
2024-03-05T17:23:48.554Z,100382.50
2024-03-05T17:26:17.462Z,100383.31
2024-03-05T17:28:45.058Z,100391.22
2024-03-05T17:31:13.135Z,100393.97
2024-03-05T17:33:40.612Z,100389.41
2024-03-05T17:36:08.028Z,100399.97
2024-03-05T17:38:35.161Z,100404.34
2024-03-05T17:41:04.788Z,100411.31
2024-03-05T17:43:32.297Z,100415.78
2024-03-05T17:46:00.448Z,100411.44
2024-03-05T17:48:28.703Z,100423.72
2024-03-05T17:50:56.162Z,100424.59
2024-03-05T17:53:23.275Z,100421.94
2024-03-05T17:55:50.778Z,100419.38
2024-03-05T17:58:19.868Z,100426.47
2024-03-05T18:00:47.635Z,100429.94
2024-03-05T18:03:23.707Z,100430.63
2024-03-05T18:05:51.298Z,100422.63
2024-03-05T18:08:18.498Z,100429.44
2024-03-05T18:10:47.047Z,100428.63
2024-03-05T18:13:16.178Z,100425.22
2024-03-05T18:15:46.370Z,100431.97
2024-03-05T18:18:15.709Z,100433.81
2024-03-05T18:20:44.929Z,100433.16
2024-03-05T18:23:13.294Z,100438.59
2024-03-05T18:25:40.539Z,100440.34
2024-03-05T18:28:10.936Z,100448.22
2024-03-05T18:30:43.558Z,100445.63
2024-03-05T18:33:12.835Z,100439.53
2024-03-05T18:35:41.840Z,100446.59
2024-03-05T18:40:41.422Z,100451.78
2024-03-05T18:43:11.243Z,100457.06
2024-03-05T18:45:38.881Z,100455.38
2024-03-05T18:48:10.103Z,100460.59
2024-03-05T18:50:39.180Z,100457.94
2024-03-05T18:53:07.763Z,100467.56
2024-03-05T18:55:37.697Z,100468.47
2024-03-05T18:58:09.913Z,100464.09
2024-03-05T19:00:41.664Z,100458.88
2024-03-05T19:03:09.180Z,100465.66
2024-03-05T19:05:37.816Z,100475.25
2024-03-05T19:08:07.049Z,100464.56
2024-03-05T19:10:34.956Z,100468.13
2024-03-05T19:13:05.124Z,100469.00
2024-03-05T19:15:32.386Z,100472.63
2024-03-05T19:17:59.601Z,100477.06
2024-03-05T19:20:27.435Z,100474.28
2024-03-05T19:22:55.365Z,100474.19
2024-03-05T19:25:23.724Z,100474.31
2024-03-05T19:27:52.265Z,100474.50
2024-03-05T19:30:19.734Z,100477.09
2024-03-05T19:32:48.118Z,100477.97
2024-03-05T19:35:18.643Z,100471.00
2024-03-05T19:37:49.146Z,100482.25
2024-03-05T19:40:18.099Z,100475.13
2024-03-05T19:42:47.430Z,100476.13
2024-03-05T19:45:15.123Z,100477.03
2024-03-05T19:47:42.779Z,100480.53
2024-03-05T19:50:14.908Z,100483.97
2024-03-05T19:52:42.582Z,100482.25
2024-03-05T19:55:10.425Z,100486.59
2024-03-05T19:57:38.442Z,100480.16
2024-03-05T20:00:13.350Z,100482.03
2024-03-05T20:02:40.884Z,100484.56
2024-03-05T20:05:08.470Z,100478.28
2024-03-05T20:07:35.705Z,100483.09
2024-03-05T20:10:03.061Z,100476.78
2024-03-05T20:12:30.447Z,100476.63
2024-03-05T20:14:57.513Z,100483.81
2024-03-05T20:17:27.312Z,100475.00
2024-03-05T20:19:55.195Z,100475.31
2024-03-05T20:22:25.853Z,100471.72
2024-03-05T20:24:59.951Z,100472.59
2024-03-05T20:27:28.925Z,100465.50
2024-03-05T20:29:57.071Z,100466.41
2024-03-05T20:32:30.613Z,100467.47
2024-03-05T20:34:58.498Z,100464.72
2024-03-05T20:37:25.710Z,100463.84
2024-03-05T20:39:55.964Z,100470.84
2024-03-05T20:42:23.153Z,100464.59
2024-03-05T20:44:50.327Z,100464.78
2024-03-05T20:47:17.827Z,100458.75
2024-03-05T20:49:46.817Z,100460.38
2024-03-05T20:52:14.046Z,100459.47
2024-03-05T20:54:41.231Z,100462.00
2024-03-05T20:57:08.406Z,100463.84
2024-03-05T20:59:35.578Z,100460.34
2024-03-05T21:02:10.900Z,100464.72
2024-03-05T21:04:39.462Z,100458.59
2024-03-05T21:07:07.477Z,100463.84
2024-03-05T21:09:35.115Z,100465.56
2024-03-05T21:12:02.418Z,100465.59
2024-03-05T21:14:29.513Z,100467.47
2024-03-05T21:16:56.743Z,100466.50
2024-03-05T21:19:27.847Z,100469.16
2024-03-05T21:21:55.043Z,100473.50
2024-03-05T21:24:24.550Z,100472.72
2024-03-05T21:29:21.820Z,100471.00
2024-03-05T21:31:49.144Z,100474.47
2024-03-05T21:34:16.228Z,100471.88
2024-03-05T21:36:44.350Z,100477.00
2024-03-05T21:39:14.746Z,100475.34
2024-03-05T21:41:43.238Z,100477.81
2024-03-05T21:44:10.550Z,100483.16
2024-03-05T21:46:38.354Z,100476.25
2024-03-05T21:49:06.761Z,100471.88
2024-03-05T21:51:34.031Z,100472.75
2024-03-05T21:54:01.138Z,100481.47
2024-03-05T21:56:28.510Z,100494.38
2024-03-05T21:58:55.691Z,100488.31
2024-03-05T22:01:23.383Z,100492.78
2024-03-05T22:03:50.472Z,100493.75
2024-03-05T22:06:23.838Z,100498.06
2024-03-05T22:08:52.434Z,100496.38
2024-03-05T22:11:19.820Z,100498.94
2024-03-05T22:13:48.599Z,100500.69
2024-03-05T22:16:15.925Z,100503.38
2024-03-05T22:18:43.886Z,100499.00
2024-03-05T22:21:11.864Z,100498.91
2024-03-05T22:23:38.915Z,100507.75
2024-03-05T22:26:06.014Z,100499.81
2024-03-05T22:28:33.297Z,100506.75
2024-03-05T22:31:01.100Z,100507.63
2024-03-05T22:33:28.258Z,100515.56
2024-03-05T22:35:55.346Z,100511.22
2024-03-05T22:38:22.631Z,100522.63
2024-03-05T22:40:49.828Z,100520.03
2024-03-05T22:43:17.060Z,100514.75
2024-03-05T22:45:44.230Z,100519.97
2024-03-05T22:48:11.437Z,100512.97
2024-03-05T22:50:38.486Z,100517.31
2024-03-05T22:53:05.657Z,100519.97
2024-03-05T22:55:32.777Z,100519.97
2024-03-05T22:57:59.930Z,100520.94
2024-03-05T23:00:36.129Z,100524.47
2024-03-05T23:03:07.159Z,100525.28
2024-03-05T23:05:34.243Z,100521.81
2024-03-05T23:08:01.578Z,100517.31
2024-03-05T23:10:30.012Z,100512.97
2024-03-05T23:12:57.870Z,100521.81
2024-03-05T23:15:28.654Z,100520.06
2024-03-05T23:17:55.725Z,100514.81
2024-03-05T23:20:22.976Z,100514.81
2024-03-05T23:22:52.877Z,100514.69
2024-03-05T23:25:20.742Z,100518.16
2024-03-05T23:27:48.095Z,100518.88
2024-03-05T23:30:19.830Z,100521.72
2024-03-05T23:32:47.931Z,100528.81
2024-03-05T23:35:15.980Z,100522.66
2024-03-05T23:37:43.415Z,100534.94
2024-03-05T23:40:11.307Z,100537.56
2024-03-05T23:42:39.616Z,100541.91
2024-03-05T23:45:08.076Z,100537.53
2024-03-05T23:47:35.345Z,100538.44
2024-03-05T23:50:03.257Z,100537.56
2024-03-05T23:52:30.521Z,100545.44
2024-03-05T23:55:01.102Z,100547.19
2024-03-05T23:57:29.853Z,100548.06
2024-03-05T23:59:57.015Z,100544.59
